Time;durP1;ratioP1;P1;durP2;ratioP2;P2;SDS_P1;SDS_P2;PMS_P1;PMS_P2;Temp;Humidity;BMP_temperature;BMP_pressure;BME280_temperature;BME280_humidity;BME280_pressure;Samples;Min_cycle;Max_cycle;Signal;HPM_P1;HPM_P2
2021/07/23 07:15:22;;;;;;;9.25;6.20;;;;;;;26.67;57.48;101631.38;1440936;26;20043;-68
2021/07/23 07:17:47;;;;;;;12.70;5.97;;;;;;;26.69;57.60;101637.38;4953445;28;20035;-67
2021/07/23 07:20:13;;;;;;;10.15;6.18;;;;;;;26.70;57.75;101632.81;4952979;28;20032;-68
2021/07/23 07:22:38;;;;;;;12.15;7.32;;;;;;;26.72;57.62;101633.41;4953921;28;20035;-66
2021/07/23 07:25:04;;;;;;;9.07;5.93;;;;;;;26.73;57.92;101630.47;4952913;28;20031;-68
2021/07/23 07:27:29;;;;;;;10.13;6.55;;;;;;;26.74;57.77;101628.59;4951078;28;20101;-67
2021/07/23 07:29:55;;;;;;;11.68;6.80;;;;;;;26.74;57.96;101621.34;4954410;28;20035;-68
2021/07/23 07:32:20;;;;;;;9.55;6.97;;;;;;;26.76;57.85;101629.19;4951837;28;20130;-69
2021/07/23 07:34:45;;;;;;;12.23;7.88;;;;;;;26.77;58.08;101630.84;4956502;28;20036;-68
2021/07/23 07:37:11;;;;;;;11.13;7.20;;;;;;;26.78;58.04;101632.47;4954537;28;20095;-66
2021/07/23 07:39:36;;;;;;;15.77;7.53;;;;;;;26.78;58.11;101627.91;4957489;28;20642;-68
2021/07/23 07:42:02;;;;;;;14.82;7.78;;;;;;;26.79;58.29;101623.34;4954128;28;20039;-68
2021/07/23 07:44:28;;;;;;;11.38;7.05;;;;;;;26.79;58.01;101624.19;4952582;28;20050;-68
2021/07/23 07:46:53;;;;;;;14.85;8.27;;;;;;;26.80;58.11;101625.81;4948078;28;20465;-68
2021/07/23 07:49:22;;;;;;;12.13;8.63;;;;;;;26.81;58.30;101627.47;4951360;28;20440;-65
2021/07/23 07:51:47;;;;;;;15.57;8.48;;;;;;;26.83;58.36;101624.56;4956878;28;20041;-68
2021/07/23 07:54:13;;;;;;;15.73;8.50;;;;;;;26.84;58.46;101621.66;4950374;28;20024;-66
2021/07/23 07:56:39;;;;;;;12.65;8.50;;;;;;;26.85;58.61;101623.28;4956435;28;20058;-66
2021/07/23 07:59:04;;;;;;;14.40;9.55;;;;;;;26.86;58.39;101619.56;4935197;29;20477;-66
2021/07/23 08:01:30;;;;;;;18.25;10.95;;;;;;;26.86;58.58;101619.56;4948704;28;20060;-66
2021/07/23 08:03:55;;;;;;;18.00;10.52;;;;;;;26.88;58.73;101621.19;4920676;29;20039;-66
2021/07/23 08:06:24;;;;;;;16.20;10.15;;;;;;;26.88;58.72;101615.81;4954674;28;20043;-66
2021/07/23 08:08:52;;;;;;;18.05;12.00;;;;;;;26.89;58.77;101612.91;4956460;28;20046;-66
2021/07/23 08:11:18;;;;;;;21.55;12.15;;;;;;;26.91;58.19;101608.09;4953437;28;20053;-66
2021/07/23 08:13:44;;;;;;;21.42;13.45;;;;;;;26.91;58.41;101609.97;4958102;28;20062;-66
2021/07/23 08:16:12;;;;;;;20.55;13.18;;;;;;;26.92;58.39;101611.63;4947813;28;20630;-66
2021/07/23 08:18:37;;;;;;;21.77;11.80;;;;;;;26.92;58.61;101608.91;4957799;28;20082;-68
2021/07/23 08:21:03;;;;;;;19.55;12.90;;;;;;;26.94;58.40;101612.19;4953920;28;20035;-66
2021/07/23 08:23:30;;;;;;;18.83;12.77;;;;;;;26.95;58.44;101613.84;4952097;28;20047;-65
2021/07/23 08:25:55;;;;;;;23.77;14.05;;;;;;;26.96;58.32;101612.78;4955466;28;20043;-66
2021/07/23 08:28:20;;;;;;;21.30;13.43;;;;;;;26.96;58.29;101610.09;4953241;28;20050;-66
2021/07/23 08:30:46;;;;;;;23.50;14.60;;;;;;;26.96;58.23;101608.22;4957312;28;20035;-66
2021/07/23 08:33:11;;;;;;;20.45;13.65;;;;;;;26.97;58.05;101611.75;4936557;29;20043;-66
2021/07/23 08:35:38;;;;;;;23.40;14.13;;;;;;;26.97;58.14;101609.88;4956780;28;20030;-66
2021/07/23 08:38:04;;;;;;;23.13;14.48;;;;;;;26.98;58.30;101602.63;4956815;28;20551;-66
2021/07/23 08:40:29;;;;;;;22.77;13.77;;;;;;;26.98;58.38;101606.13;4940246;28;20043;-66
2021/07/23 08:42:55;;;;;;;19.38;13.90;;;;;;;26.99;58.36;101607.81;4942910;28;20046;-66
2021/07/23 08:45:21;;;;;;;21.60;13.43;;;;;;;27.00;58.14;101614.84;4957294;28;20044;-66
2021/07/23 08:47:46;;;;;;;22.70;13.73;;;;;;;27.01;58.21;101613.00;4961459;28;20038;-66
2021/07/23 08:50:12;;;;;;;22.20;12.80;;;;;;;27.01;58.25;101610.28;4957076;28;20496;-67
2021/07/23 08:52:41;;;;;;;21.25;14.32;;;;;;;27.00;58.05;101601.41;4960144;28;20054;-66
2021/07/23 08:55:08;;;;;;;18.35;13.43;;;;;;;27.02;58.12;101601.16;4957296;28;20039;-66
2021/07/23 08:57:34;;;;;;;20.23;13.70;;;;;;;27.01;58.12;101599.53;4958754;28;20425;-66
2021/07/23 08:59:59;;;;;;;20.75;14.32;;;;;;;27.02;57.88;101593.09;4959593;28;20059;-66
2021/07/23 09:02:25;;;;;;;18.00;13.32;;;;;;;27.03;58.09;101590.16;4951350;28;20473;-66
2021/07/23 09:04:53;;;;;;;17.63;13.13;;;;;;;27.03;58.04;101587.47;4960986;28;20034;-66
2021/07/23 09:07:19;;;;;;;20.08;13.80;;;;;;;27.03;58.19;101582.09;4956711;28;20046;-66
2021/07/23 09:09:55;;;;;;;19.48;13.35;;;;;;;27.01;57.97;101581.50;4960690;28;20030;-66
2021/07/23 09:12:20;;;;;;;19.35;13.63;;;;;;;27.05;57.94;101579.16;4944675;29;20031;-66
2021/07/23 09:14:46;;;;;;;17.73;13.50;;;;;;;27.04;58.19;101572.13;4960571;28;20601;-66
2021/07/23 09:17:11;;;;;;;20.58;12.95;;;;;;;27.05;58.05;101579.97;4957176;28;20054;-66
2021/07/23 09:19:40;;;;;;;19.42;13.02;;;;;;;27.06;58.01;101578.09;4957495;28;20047;-66
2021/07/23 09:22:06;;;;;;;16.88;11.85;;;;;;;27.06;57.82;101570.03;4958982;28;20035;-66
2021/07/23 09:24:51;;;;;;;16.50;12.57;;;;;;;27.03;58.25;101570.50;4938475;29;20039;-67
2021/07/23 09:27:32;;;;;;;15.88;11.43;;;;;;;27.03;57.89;101573.19;4959773;28;20031;-66
2021/07/23 09:29:58;;;;;;;15.30;11.95;;;;;;;27.07;57.86;101569.81;4956591;28;20552;-66
2021/07/23 09:32:30;;;;;;;17.27;10.52;;;;;;;27.06;57.98;101567.34;4959825;28;20035;-66
2021/07/23 09:35:14;;;;;;;15.02;10.40;;;;;;;27.04;57.74;101562.19;4956615;28;20042;-66
2021/07/23 09:37:57;;;;;;;14.98;11.10;;;;;;;27.04;57.69;101555.97;4959963;28;20093;-66
2021/07/23 09:40:23;;;;;;;14.18;10.30;;;;;;;27.08;57.66;101554.47;4955640;28;20038;-66
2021/07/23 09:42:59;;;;;;;14.30;10.45;;;;;;;27.06;57.43;101553.88;4960202;28;20034;-66
2021/07/23 09:45:29;;;;;;;13.65;9.90;;;;;;;27.07;57.32;101544.75;4956411;28;20043;-66
2021/07/23 09:48:12;;;;;;;11.80;9.25;;;;;;;27.04;57.13;101548.72;4951936;28;20114;-66
2021/07/23 09:50:48;;;;;;;14.07;10.75;;;;;;;27.06;57.14;101554.69;4955704;28;20650;-68
2021/07/23 09:53:19;;;;;;;13.65;10.52;;;;;;;27.07;56.88;101548.25;4957920;28;20409;-66
2021/07/23 09:55:46;;;;;;;17.27;9.98;;;;;;;27.06;56.88;101556.56;4956044;28;20465;-66
2021/07/23 09:58:22;;;;;;;14.63;10.40;;;;;;;27.05;56.55;101555.75;4958734;28;20067;-67
2021/07/23 10:01:00;;;;;;;15.25;10.25;;;;;;;27.03;56.32;101557.84;4950912;28;20035;-66
2021/07/23 10:03:27;;;;;;;14.32;10.25;;;;;;;27.06;56.35;101554.69;4957714;28;20035;-65
2021/07/23 10:06:27;;;;;;;14.45;11.60;;;;;;;27.03;56.32;101548.94;4956073;28;20737;-66
2021/07/23 10:09:04;;;;;;;13.45;10.85;;;;;;;27.04;56.25;101546.03;4930703;28;20493;-66
2021/07/23 10:11:30;;;;;;;13.27;10.45;;;;;;;27.07;56.10;101547.44;4958671;28;20031;-66
2021/07/23 10:13:59;;;;;;;13.55;10.70;;;;;;;27.07;56.25;101540.19;4956521;28;20058;-66
2021/07/23 10:16:24;;;;;;;12.43;9.45;;;;;;;27.08;56.07;101539.13;4957923;28;20055;-66
2021/07/23 10:18:50;;;;;;;13.27;10.18;;;;;;;27.09;55.85;101542.63;4939194;29;20420;-67
2021/07/23 10:21:16;;;;;;;16.02;9.98;;;;;;;27.10;56.01;101533.50;4956302;28;20126;-66
2021/07/23 10:23:44;;;;;;;14.32;10.18;;;;;;;27.10;55.98;101528.13;4957256;28;20035;-66
2021/07/23 10:26:12;;;;;;;12.65;9.38;;;;;;;27.11;55.92;101529.75;4954813;28;20058;-66
2021/07/23 10:28:42;;;;;;;12.32;9.90;;;;;;;27.11;55.58;101527.06;4956481;28;20097;-66
2021/07/23 10:31:17;;;;;;;14.95;9.32;;;;;;;27.08;55.71;101512.19;4956643;28;20030;-66
2021/07/23 10:33:52;;;;;;;;;;;;;;;27.02;56.04;101517.69;4956304;28;20141;-66
2021/07/23 10:36:26;;;;;;;12.57;9.68;;;;;;;27.07;55.64;101524.03;4956513;28;19911;-66
2021/07/23 10:39:17;;;;;;;14.90;10.32;;;;;;;27.05;55.72;101507.28;4956927;28;20057;-67
2021/07/23 10:42:02;;;;;;;12.90;8.52;;;;;;;27.11;55.46;101510.91;4945913;28;20035;-66
2021/07/23 10:44:28;;;;;;;13.20;8.60;;;;;;;27.12;55.57;101509.84;4958092;28;20044;-66
2021/07/23 10:46:54;;;;;;;14.25;9.02;;;;;;;27.12;55.63;101512.53;4955338;28;20035;-66
2021/07/23 10:49:31;;;;;;;13.65;10.25;;;;;;;27.10;55.49;101512.78;4958752;28;20091;-66
2021/07/23 10:52:00;;;;;;;15.10;9.93;;;;;;;27.14;55.23;101526.59;4946696;28;20086;-67
2021/07/23 10:54:27;;;;;;;13.05;9.35;;;;;;;27.13;55.27;101512.31;4958210;28;20447;-66
2021/07/23 10:56:58;;;;;;;12.30;9.30;;;;;;;27.12;55.05;101510.66;4944805;28;20032;-66
2021/07/23 10:59:41;;;;;;;12.25;9.85;;;;;;;27.09;55.13;101511.13;4957332;28;20031;-67
2021/07/23 11:02:27;;;;;;;12.07;9.82;;;;;;;27.13;54.95;101516.88;4946834;28;20043;-67
2021/07/23 11:05:03;;;;;;;12.68;9.80;;;;;;;27.11;54.93;101514.41;4950549;28;20090;-66
2021/07/23 11:07:29;;;;;;;14.18;9.98;;;;;;;27.13;54.83;101519.56;4954786;28;20039;-66
2021/07/23 11:09:55;;;;;;;14.13;9.70;;;;;;;27.13;54.67;101523.09;4958158;28;20120;-66
2021/07/23 11:12:25;;;;;;;14.60;9.95;;;;;;;27.13;54.85;101512.31;4954068;28;20070;-66
2021/07/23 11:15:01;;;;;;;13.70;9.40;;;;;;;27.12;54.67;101507.97;4958306;28;20047;-66
2021/07/23 11:17:30;;;;;;;14.82;9.82;;;;;;;27.14;54.63;101508.59;4946471;28;20050;-67
2021/07/23 11:20:03;;;;;;;13.73;9.70;;;;;;;27.14;54.67;101503.22;4958491;28;20062;-66
2021/07/23 11:22:33;;;;;;;13.00;9.60;;;;;;;27.13;54.47;101498.03;4945534;28;20058;-66
2021/07/23 11:25:05;;;;;;;12.68;8.80;;;;;;;27.14;54.56;101496.97;4954010;28;20039;-66
2021/07/23 11:27:36;;;;;;;14.05;9.32;;;;;;;27.13;54.48;101495.34;4950210;28;20042;-66
2021/07/23 11:30:16;;;;;;;13.70;9.82;;;;;;;27.10;54.36;101498.50;4954681;28;20042;-66
2021/07/23 11:32:59;;;;;;;12.77;9.23;;;;;;;27.11;54.55;101494.75;4951071;28;20037;-66
2021/07/23 11:35:26;;;;;;;13.00;9.45;;;;;;;27.13;54.43;101500.72;4955436;28;20137;-67
2021/07/23 11:37:52;;;;;;;12.85;9.90;;;;;;;27.13;54.25;101498.03;4956463;28;20058;-66
2021/07/23 11:40:20;;;;;;;16.58;10.05;;;;;;;27.13;54.33;101493.47;4953655;28;20426;-67
2021/07/23 11:42:50;;;;;;;14.35;9.40;;;;;;;27.13;54.32;101492.63;4957261;28;20608;-66
2021/07/23 11:45:18;;;;;;;14.52;9.77;;;;;;;27.13;54.32;101492.63;4954687;28;20039;-67
2021/07/23 11:47:49;;;;;;;14.18;9.63;;;;;;;27.11;54.28;101489.34;4957615;28;20379;-66
2021/07/23 11:50:21;;;;;;;15.98;9.70;;;;;;;27.13;54.01;101484.56;4954438;28;20039;-66
2021/07/23 11:52:50;;;;;;;13.98;8.80;;;;;;;27.12;54.12;101483.75;4958047;28;20042;-66
2021/07/23 11:55:17;;;;;;;18.65;9.85;;;;;;;27.12;54.15;101478.34;4953802;28;20118;-68
2021/07/23 11:57:44;;;;;;;13.95;8.88;;;;;;;27.14;54.14;101478.13;4956572;28;20161;-66
2021/07/23 12:00:13;;;;;;;15.18;9.38;;;;;;;27.10;53.95;101475.06;4954274;28;20149;-67
2021/07/23 12:02:38;;;;;;;15.85;9.70;;;;;;;27.10;53.88;101474.25;4951206;28;20058;-66
2021/07/23 12:05:06;;;;;;;13.90;9.38;;;;;;;27.12;53.99;101477.53;4956356;28;20682;-66
2021/07/23 12:07:32;;;;;;;16.67;9.40;;;;;;;27.11;53.66;101478.59;4953878;28;20039;-66
2021/07/23 12:09:59;;;;;;;12.38;8.82;;;;;;;27.12;53.80;101477.53;4957749;28;20146;-66
2021/07/23 12:12:25;;;;;;;14.88;9.32;;;;;;;27.12;53.78;101478.34;4955197;28;20043;-67
2021/07/23 12:14:51;;;;;;;13.10;8.85;;;;;;;27.12;53.84;101477.53;4961574;28;20031;-66
2021/07/23 12:17:16;;;;;;;13.52;9.77;;;;;;;27.12;53.62;101477.53;4958054;28;20178;-67
2021/07/23 12:19:42;;;;;;;17.60;12.65;;;;;;;27.11;53.85;101474.03;4950788;28;20130;-66
2021/07/23 12:22:14;;;;;;;15.32;12.00;;;;;;;27.12;53.62;101474.84;4960214;28;20477;-67
2021/07/23 12:24:39;;;;;;;16.50;11.93;;;;;;;27.11;53.42;101479.41;4948321;28;20028;-66
2021/07/23 12:27:19;;;;;;;15.27;10.55;;;;;;;27.07;53.53;101475.53;4960349;28;20089;-67
2021/07/23 12:29:45;;;;;;;17.20;10.75;;;;;;;27.10;53.39;101485.84;4959459;28;20488;-66
2021/07/23 12:32:12;;;;;;;14.98;10.80;;;;;;;27.11;53.33;101486.66;4959882;28;20420;-66
2021/07/23 12:34:38;;;;;;;16.42;10.85;;;;;;;27.10;53.45;101493.94;4940691;29;20404;-67
2021/07/23 12:37:17;;;;;;;14.63;10.00;;;;;;;27.07;53.33;101482.81;4958215;28;20027;-66
2021/07/23 12:40:00;;;;;;;17.40;11.25;;;;;;;27.06;53.44;101479.28;4958149;28;20122;-66
2021/07/23 12:42:26;;;;;;;13.82;10.77;;;;;;;27.08;53.36;101477.19;4959855;28;20034;-69
2021/07/23 12:44:52;;;;;;;17.67;11.18;;;;;;;27.09;53.25;101486.91;4958032;28;20050;-66
2021/07/23 12:47:25;;;;;;;13.50;11.07;;;;;;;27.07;53.28;101485.50;4958732;28;20043;-67
2021/07/23 12:49:53;;;;;;;16.30;10.43;;;;;;;27.10;53.22;101482.34;4959210;28;20046;-67
2021/07/23 12:52:19;;;;;;;13.38;10.80;;;;;;;27.10;53.29;101483.16;4957433;28;20102;-66
2021/07/23 12:54:47;;;;;;;15.73;11.45;;;;;;;27.10;53.33;101488.53;4960267;28;20053;-67
2021/07/23 12:57:31;;;;;;;15.15;10.70;;;;;;;27.08;53.24;101484.44;4956752;28;20043;-66
2021/07/23 13:00:25;;;;;;;22.40;10.73;;;;;;;27.06;53.30;101483.84;4954877;28;20038;-66
2021/07/23 13:02:51;;;;;;;15.93;10.63;;;;;;;27.10;53.14;101485.84;4957445;28;20137;-66
2021/07/23 13:05:19;;;;;;;14.00;10.90;;;;;;;27.09;53.08;101478.00;4957634;28;20134;-66
2021/07/23 13:07:45;;;;;;;20.42;11.68;;;;;;;27.09;53.02;101478.00;4958616;28;20043;-66
2021/07/23 13:10:15;;;;;;;16.25;11.25;;;;;;;27.08;52.96;101479.88;4958863;28;20027;-67
2021/07/23 13:12:41;;;;;;;14.15;11.02;;;;;;;27.08;52.79;101474.50;4956817;28;20043;-66
2021/07/23 13:15:06;;;;;;;13.15;11.05;;;;;;;27.08;52.79;101481.75;4959939;28;20041;-66
2021/07/23 13:17:32;;;;;;;15.77;11.15;;;;;;;27.08;52.81;101481.75;4939691;29;20058;-66
2021/07/23 13:19:57;;;;;;;15.15;11.63;;;;;;;27.09;52.92;101480.69;4943311;28;20465;-68
2021/07/23 13:22:24;;;;;;;17.58;11.60;;;;;;;27.07;52.74;101475.53;4930278;28;20036;-66
2021/07/23 13:24:50;;;;;;;14.55;11.25;;;;;;;27.08;52.91;101481.75;4955989;28;20406;-66
2021/07/23 13:27:15;;;;;;;15.80;12.25;;;;;;;27.08;52.74;101471.78;4959994;28;20050;-66
2021/07/23 13:29:41;;;;;;;15.88;12.18;;;;;;;27.09;52.82;101478.00;4957183;28;20039;-66
2021/07/23 13:32:07;;;;;;;16.70;11.38;;;;;;;27.08;52.80;101476.38;4958171;28;20309;-66
2021/07/23 13:34:32;;;;;;;14.57;11.50;;;;;;;27.07;52.79;101475.53;4957848;28;20405;-67
2021/07/23 13:37:07;;;;;;;22.60;14.35;;;;;;;27.06;52.97;101470.38;4956408;28;20046;-68
2021/07/23 13:39:45;;;;;;;16.50;12.77;;;;;;;27.04;52.69;101465.25;4958407;28;20031;-66
2021/07/23 13:42:10;;;;;;;21.58;12.63;;;;;;;27.04;52.82;101465.25;4957096;28;20042;-66
2021/07/23 13:44:37;;;;;;;17.15;12.25;;;;;;;27.04;52.90;101470.63;4958701;28;20043;-66
2021/07/23 13:47:03;;;;;;;16.30;13.20;;;;;;;27.05;53.01;101468.75;4956640;28;20118;-66
2021/07/23 13:49:29;;;;;;;19.70;13.88;;;;;;;27.05;52.61;101460.66;4959777;28;20061;-66
2021/07/23 13:51:55;;;;;;;18.63;13.38;;;;;;;27.06;52.94;101470.38;4956648;28;20047;-66
2021/07/23 13:54:20;;;;;;;19.35;13.60;;;;;;;27.06;52.75;101465.00;4958977;28;20045;-66
2021/07/23 13:56:45;;;;;;;19.15;12.48;;;;;;;27.06;52.96;101465.00;4955684;28;20032;-66
2021/07/23 13:59:11;;;;;;;19.70;14.00;;;;;;;27.06;52.88;101462.31;4957557;28;20485;-66
2021/07/23 14:01:36;;;;;;;19.65;13.52;;;;;;;27.05;52.92;101456.09;4952988;28;20046;-66
2021/07/23 14:04:03;;;;;;;18.10;12.32;;;;;;;27.07;52.83;101450.50;4956464;28;20039;-66
2021/07/23 14:06:28;;;;;;;21.40;14.20;;;;;;;27.06;52.95;101444.28;4959877;28;20105;-66
2021/07/23 14:08:54;;;;;;;20.30;13.20;;;;;;;27.06;52.94;101441.59;4955885;28;20035;-67
2021/07/23 14:11:24;;;;;;;20.58;14.18;;;;;;;27.06;52.89;101436.19;4958107;28;20031;-66
2021/07/23 14:13:49;;;;;;;19.92;13.88;;;;;;;27.07;52.89;101432.44;4956154;28;20042;-66
2021/07/23 14:16:15;;;;;;;19.85;14.63;;;;;;;27.07;53.01;101440.53;4956835;28;20071;-66
2021/07/23 14:18:41;;;;;;;20.13;14.15;;;;;;;27.08;52.73;101433.28;4957633;28;20067;-66
2021/07/23 14:21:06;;;;;;;23.75;14.02;;;;;;;27.07;52.96;101427.06;4955952;28;20062;-66
2021/07/23 14:23:33;;;;;;;18.90;14.13;;;;;;;27.07;53.01;101423.56;4956790;28;20118;-67
2021/07/23 14:25:59;;;;;;;18.70;13.95;;;;;;;27.07;53.15;101420.88;4956771;28;20138;-66
2021/07/23 14:28:24;;;;;;;20.92;15.18;;;;;;;27.07;53.03;101418.16;4955607;28;20123;-67
2021/07/23 14:30:50;;;;;;;18.48;14.80;;;;;;;27.07;52.98;101421.69;4949767;28;20125;-66
2021/07/23 14:33:15;;;;;;;17.92;14.38;;;;;;;27.07;52.94;101426.25;4955698;28;20097;-67
2021/07/23 14:35:41;;;;;;;22.10;15.00;;;;;;;27.08;52.96;101427.88;4940727;28;20042;-66
2021/07/23 14:38:06;;;;;;;18.35;13.93;;;;;;;27.07;53.04;101424.38;4955674;28;20046;-67
2021/07/23 14:40:32;;;;;;;20.58;15.75;;;;;;;27.08;53.02;101433.28;4955834;28;20148;-66
2021/07/23 14:42:57;;;;;;;19.52;15.13;;;;;;;27.09;53.21;101422.25;4957328;28;20082;-67
2021/07/23 14:45:23;;;;;;;20.25;15.18;;;;;;;27.08;52.93;101417.94;4955137;28;20503;-66
2021/07/23 14:47:48;;;;;;;20.33;14.98;;;;;;;27.09;53.01;101414.19;4958786;28;20098;-66
2021/07/23 14:50:14;;;;;;;20.85;15.95;;;;;;;27.09;52.95;101413.38;4954885;28;20047;-66
2021/07/23 14:52:40;;;;;;;20.50;15.48;;;;;;;27.08;52.95;101407.16;4957938;28;20081;-66
2021/07/23 14:55:06;;;;;;;24.02;16.88;;;;;;;27.10;52.94;101412.31;4955169;28;20066;-66
2021/07/23 14:57:32;;;;;;;19.95;15.10;;;;;;;27.09;53.14;101411.50;4955672;28;20110;-66
2021/07/23 14:59:58;;;;;;;22.33;15.77;;;;;;;27.09;52.93;101402.59;4956954;28;20031;-67
2021/07/23 15:02:26;;;;;;;20.13;15.07;;;;;;;27.10;53.06;101399.66;4932318;29;20378;-66
2021/07/23 15:04:51;;;;;;;19.05;14.55;;;;;;;27.09;53.06;101397.22;4958253;28;20442;-66
2021/07/23 15:07:17;;;;;;;20.90;15.40;;;;;;;27.10;53.22;101399.66;4955174;28;20066;-66
2021/07/23 15:09:45;;;;;;;20.75;15.43;;;;;;;27.10;53.06;101393.47;4953739;28;20038;-67
2021/07/23 15:12:11;;;;;;;19.40;14.52;;;;;;;27.10;53.15;101396.16;4954773;28;20122;-66
2021/07/23 15:14:36;;;;;;;21.58;16.52;;;;;;;27.12;53.18;101383.28;4939166;28;20102;-66
2021/07/23 15:17:03;;;;;;;23.67;16.42;;;;;;;27.11;53.11;101385.16;4956770;28;20054;-66
2021/07/23 15:19:28;;;;;;;21.58;14.98;;;;;;;27.11;52.84;101382.44;4954511;28;20035;-68
2021/07/23 15:22:00;;;;;;;21.80;15.77;;;;;;;27.13;53.10;101374.13;4958696;28;20046;-66
2021/07/23 15:24:28;;;;;;;23.92;15.82;;;;;;;27.13;53.14;101369.56;4954208;28;20062;-67
2021/07/23 15:26:54;;;;;;;20.73;15.68;;;;;;;27.13;52.98;101372.25;4955124;28;20155;-66
2021/07/23 15:29:20;;;;;;;21.48;16.35;;;;;;;27.13;53.04;101366.06;4956835;28;20847;-67
2021/07/23 15:31:46;;;;;;;23.00;15.77;;;;;;;27.13;52.99;101366.88;4937192;29;20035;-66
2021/07/23 15:34:12;;;;;;;21.77;16.23;;;;;;;27.13;53.08;101369.56;4957985;28;20034;-66
2021/07/23 15:36:38;;;;;;;21.00;16.00;;;;;;;27.15;53.06;101364.78;4954332;28;20023;-66
2021/07/23 15:39:05;;;;;;;24.27;16.60;;;;;;;27.17;53.01;101367.25;4957573;28;20400;-66
2021/07/23 15:41:34;;;;;;;20.40;16.05;;;;;;;27.16;52.87;101362.91;4953989;28;20038;-66
2021/07/23 15:44:00;;;;;;;20.60;16.05;;;;;;;27.17;53.07;101364.56;4956125;28;20039;-66
2021/07/23 15:46:26;;;;;;;20.35;16.20;;;;;;;27.16;53.05;101354.84;4954849;28;20038;-66
2021/07/23 15:48:51;;;;;;;23.42;16.05;;;;;;;27.18;52.97;101352.72;4949442;28;20039;-66
2021/07/23 15:51:17;;;;;;;21.58;16.17;;;;;;;27.18;52.94;101358.13;4951800;28;20774;-67
2021/07/23 15:53:42;;;;;;;22.05;15.70;;;;;;;27.18;52.87;101352.72;4952062;28;20473;-67
2021/07/23 15:56:08;;;;;;;23.52;16.83;;;;;;;27.18;52.99;101349.22;4962256;28;20035;-67
2021/07/23 15:58:34;;;;;;;19.20;15.57;;;;;;;27.18;53.26;101351.91;4958565;28;20042;-65
2021/07/23 16:00:59;;;;;;;23.23;15.98;;;;;;;27.19;53.11;101348.16;4939491;28;20048;-66
2021/07/23 16:03:25;;;;;;;24.35;15.23;;;;;;;27.18;53.10;101349.22;4956482;28;20419;-66
2021/07/23 16:05:50;;;;;;;23.10;16.30;;;;;;;27.18;53.18;101339.25;4937851;29;20102;-66
2021/07/23 16:08:16;;;;;;;25.20;15.52;;;;;;;27.19;53.21;101337.38;4958468;28;20341;-66
2021/07/23 16:10:41;;;;;;;20.88;15.80;;;;;;;27.18;53.17;101336.56;4954547;28;20047;-66
2021/07/23 16:13:06;;;;;;;21.10;15.45;;;;;;;27.19;53.17;101332.81;4941619;28;20035;-66
2021/07/23 16:15:32;;;;;;;21.58;16.38;;;;;;;27.20;53.13;101333.63;4957777;28;20062;-66
2021/07/23 16:17:57;;;;;;;21.65;15.57;;;;;;;27.21;53.12;101325.31;4956332;28;20043;-66
2021/07/23 16:20:23;;;;;;;20.00;15.23;;;;;;;27.21;53.14;101325.31;4943905;28;20046;-66
2021/07/23 16:22:50;;;;;;;20.55;16.02;;;;;;;27.21;53.27;101314.53;4953835;28;20043;-66
2021/07/23 16:25:16;;;;;;;23.17;16.45;;;;;;;27.21;53.06;101311.03;4954783;28;20047;-66
2021/07/23 16:27:41;;;;;;;21.27;16.00;;;;;;;27.21;53.14;101298.38;4953333;28;20051;-66
2021/07/23 16:30:07;;;;;;;23.42;16.50;;;;;;;27.20;53.17;101296.75;4947857;28;20444;-66
2021/07/23 16:32:33;;;;;;;24.40;16.10;;;;;;;27.22;53.25;101291.13;4957178;28;20403;-66
2021/07/23 16:34:58;;;;;;;23.40;15.90;;;;;;;27.21;52.99;101293.00;4935982;29;20334;-66
2021/07/23 16:37:24;;;;;;;22.20;17.45;;;;;;;27.22;53.02;101291.13;4952852;28;20097;-67
2021/07/23 16:39:49;;;;;;;24.30;16.27;;;;;;;27.22;53.21;101293.81;4952456;28;20106;-66
2021/07/23 16:42:16;;;;;;;20.58;16.08;;;;;;;27.21;53.26;101287.59;4942985;28;20338;-66
2021/07/23 16:44:42;;;;;;;26.15;16.00;;;;;;;27.21;53.14;101295.69;4934736;29;20484;-66
2021/07/23 16:47:07;;;;;;;23.30;17.23;;;;;;;27.21;53.45;101303.78;4936264;29;20094;-72
2021/07/23 16:49:33;;;;;;;24.00;15.35;;;;;;;27.22;53.53;101299.19;4958115;28;20023;-71
2021/07/23 16:52:04;;;;;;;19.25;15.10;;;;;;;27.21;54.00;101298.38;4943021;28;20070;-71
2021/07/23 16:54:29;;;;;;;23.58;16.17;;;;;;;27.21;54.12;101297.56;4933926;28;20080;-72
2021/07/23 16:56:54;;;;;;;23.00;15.52;;;;;;;27.22;54.26;101293.81;4945643;28;20744;-71
2021/07/23 16:59:20;;;;;;;22.00;15.70;;;;;;;27.22;54.41;101300.03;4950916;28;20370;-73
2021/07/23 17:01:45;;;;;;;22.65;14.63;;;;;;;27.21;54.16;101295.69;4923388;28;20130;-69
2021/07/23 17:04:11;;;;;;;21.40;15.68;;;;;;;27.21;54.34;101290.31;4937465;28;20062;-67
2021/07/23 17:06:36;;;;;;;22.77;15.55;;;;;;;27.21;54.26;101287.59;4925772;28;20043;-69
2021/07/23 17:09:08;;;;;;;22.83;15.90;;;;;;;27.22;53.76;101285.72;4937537;29;20520;-79
2021/07/23 17:11:33;;;;;;;20.60;15.20;;;;;;;27.22;54.10;101286.56;4958638;28;20030;-71
2021/07/23 17:13:59;;;;;;;24.23;16.40;;;;;;;27.23;54.07;101290.06;4949222;28;20055;-66
2021/07/23 17:16:24;;;;;;;24.67;14.80;;;;;;;27.22;54.12;101283.84;4952315;28;20647;-67
2021/07/23 17:18:50;;;;;;;27.20;15.65;;;;;;;27.22;54.22;101278.47;4931316;29;20122;-66
2021/07/23 17:21:18;;;;;;;23.10;16.00;;;;;;;27.23;54.33;101282.81;4961229;28;20086;-66
2021/07/23 17:23:44;;;;;;;25.17;16.63;;;;;;;27.24;54.27;101275.53;4937396;28;20459;-65
2021/07/23 17:26:10;;;;;;;20.20;15.38;;;;;;;27.24;54.24;101270.97;4942754;28;20531;-67
2021/07/23 17:28:36;;;;;;;19.17;14.20;;;;;;;27.26;54.43;101266.16;4934643;28;20050;-70
2021/07/23 17:31:02;;;;;;;25.33;16.27;;;;;;;27.27;54.63;101267.78;4939441;29;20039;-64
2021/07/23 17:33:27;;;;;;;22.50;16.13;;;;;;;27.30;54.89;101267.34;4933446;29;20043;-68
2021/07/23 17:35:52;;;;;;;28.98;16.85;;;;;;;27.31;55.28;101274.38;4950944;28;20043;-67
2021/07/23 17:38:18;;;;;;;22.70;16.85;;;;;;;27.33;55.20;101274.13;4932862;29;20043;-69
2021/07/23 17:40:45;;;;;;;23.63;15.65;;;;;;;27.34;55.01;101271.19;4944900;28;20035;-67
2021/07/23 17:43:11;;;;;;;21.63;15.70;;;;;;;27.36;55.28;101271.78;4948165;28;20034;-67
2021/07/23 17:46:10;;;;;;;22.50;16.13;;;;;;;27.36;55.23;101269.09;4953416;28;20066;-69
2021/07/23 17:48:36;;;;;;;21.27;15.27;;;;;;;27.40;55.26;101270.22;4952477;28;20118;-67
2021/07/23 17:51:03;;;;;;;21.40;14.73;;;;;;;27.40;55.08;101275.63;4942885;28;20031;-67
2021/07/23 17:53:29;;;;;;;18.48;14.35;;;;;;;27.43;55.11;101268.94;4945643;28;20054;-66
2021/07/23 17:55:54;;;;;;;18.27;14.25;;;;;;;27.44;54.92;101274.09;4961911;28;20066;-67
2021/07/23 17:58:20;;;;;;;19.65;14.07;;;;;;;27.45;54.94;101264.13;4964671;28;20066;-66
2021/07/23 18:00:45;;;;;;;18.40;13.95;;;;;;;27.46;54.79;101260.41;4959743;28;20042;-66
2021/07/23 18:03:11;;;;;;;21.95;14.75;;;;;;;27.45;54.58;101259.56;4957255;28;20769;-67
2021/07/23 18:05:38;;;;;;;19.73;13.60;;;;;;;27.47;54.88;101253.13;4946479;28;20039;-66
2021/07/23 18:08:04;;;;;;;19.77;14.00;;;;;;;27.47;54.43;101248.56;4961046;28;20515;-66
2021/07/23 18:10:30;;;;;;;19.02;12.85;;;;;;;27.47;54.43;101247.75;4955016;28;20047;-66
2021/07/23 18:12:56;;;;;;;16.70;12.95;;;;;;;27.49;54.21;101248.31;4955315;28;20043;-66
2021/07/23 18:15:23;;;;;;;19.42;13.73;;;;;;;27.49;53.99;101249.13;4953344;28;20042;-67
2021/07/23 18:17:49;;;;;;;16.40;12.57;;;;;;;27.50;54.13;101245.38;4953884;28;20053;-67
2021/07/23 18:20:14;;;;;;;20.80;13.95;;;;;;;27.50;53.95;101244.56;4957694;28;20078;-67
2021/07/23 18:22:41;;;;;;;22.90;13.85;;;;;;;27.49;53.94;101242.94;4955374;28;20031;-66
2021/07/23 18:25:07;;;;;;;20.75;13.82;;;;;;;27.48;53.98;101239.41;4952452;28;20047;-68
2021/07/23 18:27:32;;;;;;;16.75;12.82;;;;;;;27.48;54.12;101239.41;4951606;28;20202;-67
2021/07/23 18:29:58;;;;;;;17.27;11.93;;;;;;;27.49;53.65;101240.22;4945193;29;20054;-68